createdAt,value
2022-09-28T00:02:01.632Z,7.93
2022-09-28T00:04:30.712Z,7.70
2022-09-28T00:06:59.931Z,9.45
2022-09-28T00:09:30.512Z,5.15
2022-09-28T00:11:59.794Z,7.25
2022-09-28T00:14:29.065Z,5.47
2022-09-28T00:16:58.341Z,6.55
2022-09-28T00:19:27.446Z,5.82
2022-09-28T00:21:56.734Z,4.75
2022-09-28T00:24:27.786Z,4.22
2022-09-28T00:27:01.436Z,4.75
2022-09-28T00:29:32.360Z,5.13
2022-09-28T00:32:03.518Z,4.65
2022-09-28T00:34:36.343Z,4.40
2022-09-28T00:37:08.859Z,5.00
2022-09-28T00:39:38.772Z,6.07
2022-09-28T00:42:15.642Z,6.13
2022-09-28T00:44:48.707Z,8.68
2022-09-28T00:47:31.274Z,8.27
2022-09-28T00:50:04.276Z,8.55
2022-09-28T00:52:37.221Z,7.50
2022-09-28T00:55:09.922Z,8.52
2022-09-28T00:57:44.429Z,7.88
2022-09-28T01:00:14.795Z,8.07
2022-09-28T01:02:44.798Z,6.00
2022-09-28T01:05:15.322Z,7.85
2022-09-28T01:07:45.523Z,7.18
2022-09-28T01:10:15.501Z,7.53
2022-09-28T01:12:46.081Z,6.45
2022-09-28T01:15:16.669Z,6.38
2022-09-28T01:18:09.262Z,5.57
2022-09-28T01:20:57.375Z,5.07
2022-09-28T01:24:04.318Z,4.82
2022-09-28T01:26:54.767Z,3.28
2022-09-28T01:29:37.239Z,4.47
2022-09-28T01:32:22.347Z,7.25
2022-09-28T01:34:59.140Z,4.43
2022-09-28T01:37:37.396Z,8.88
2022-09-28T01:40:08.854Z,4.05
2022-09-28T01:42:42.513Z,4.50
2022-09-28T01:45:29.195Z,4.55
2022-09-28T01:48:03.258Z,3.97
2022-09-28T01:50:37.265Z,3.60
2022-09-28T01:53:13.138Z,3.80
2022-09-28T01:55:46.231Z,5.13
2022-09-28T01:58:26.138Z,3.35
2022-09-28T02:01:00.939Z,3.03
2022-09-28T02:03:36.587Z,5.00
2022-09-28T02:06:10.745Z,4.40
2022-09-28T02:08:45.205Z,6.65
2022-09-28T02:11:16.302Z,3.95
2022-09-28T02:13:50.886Z,3.70
2022-09-28T02:16:24.202Z,5.78
2022-09-28T02:18:53.757Z,4.57
2022-09-28T02:21:28.718Z,4.47
2022-09-28T02:24:02.692Z,5.07
2022-09-28T02:26:36.156Z,3.88
2022-09-28T02:29:06.934Z,5.13
2022-09-28T02:36:34.329Z,7.82
2022-09-28T02:39:03.670Z,5.82
2022-09-28T02:41:43.974Z,4.70
2022-09-28T02:44:30.671Z,8.15
2022-09-28T02:47:05.701Z,5.90
2022-09-28T02:49:49.308Z,7.25
2022-09-28T02:52:37.978Z,4.25
2022-09-28T02:55:20.343Z,7.38
2022-09-28T02:58:04.822Z,9.32
2022-09-28T03:00:42.313Z,7.65
2022-09-28T03:03:19.530Z,9.00
2022-09-28T03:05:58.515Z,7.57
2022-09-28T03:08:34.604Z,11.73
2022-09-28T03:11:08.728Z,6.40
2022-09-28T03:13:39.361Z,8.10
2022-09-28T03:16:15.988Z,7.88
2022-09-28T03:18:47.768Z,7.03
2022-09-28T03:21:18.020Z,12.77
2022-09-28T03:23:48.005Z,9.95
2022-09-28T03:26:19.999Z,10.50
2022-09-28T03:28:49.348Z,11.27
2022-09-28T03:31:26.001Z,10.60
2022-09-28T03:33:55.717Z,8.02
2022-09-28T03:36:25.003Z,8.63
2022-09-28T03:38:55.147Z,10.05
2022-09-28T03:41:27.769Z,9.40
2022-09-28T03:43:57.070Z,8.98
2022-09-28T03:46:29.841Z,11.63
2022-09-28T03:49:04.579Z,11.13
2022-09-28T03:51:33.895Z,10.02
2022-09-28T03:54:03.226Z,12.52
2022-09-28T03:56:33.198Z,14.93
2022-09-28T03:59:03.829Z,11.13
2022-09-28T04:01:34.930Z,7.78
2022-09-28T04:04:04.282Z,13.40
2022-09-28T04:06:33.443Z,15.95
2022-09-28T04:09:02.860Z,11.60
2022-09-28T04:11:47.546Z,13.32
2022-09-28T04:14:17.506Z,11.02
2022-09-28T04:16:48.709Z,11.65
2022-09-28T04:19:18.884Z,14.07
2022-09-28T04:22:07.398Z,10.60
2022-09-28T04:24:36.853Z,14.32
2022-09-28T04:27:23.372Z,12.98
2022-09-28T04:29:52.977Z,12.93
2022-09-28T04:32:23.514Z,14.00
2022-09-28T04:34:53.839Z,11.30
2022-09-28T04:37:23.435Z,12.55
2022-09-28T04:39:52.963Z,17.02
2022-09-28T04:42:22.381Z,16.45
2022-09-28T04:44:52.773Z,13.38
2022-09-28T04:47:23.540Z,17.33
2022-09-28T04:49:52.956Z,14.00
2022-09-28T04:52:28.292Z,13.20
2022-09-28T04:54:57.502Z,17.10
2022-09-28T04:57:27.778Z,13.35
2022-09-28T04:59:57.071Z,12.95
2022-09-28T05:02:29.532Z,13.52
2022-09-28T05:05:17.901Z,13.35
2022-09-28T05:08:00.218Z,17.40
2022-09-28T05:10:29.813Z,14.35
2022-09-28T05:12:59.164Z,16.63
2022-09-28T05:15:28.809Z,13.18
2022-09-28T05:17:59.595Z,12.65
2022-09-28T05:20:42.804Z,13.25
2022-09-28T05:23:13.019Z,12.20
2022-09-28T05:25:45.519Z,15.18
2022-09-28T05:28:30.072Z,13.50
2022-09-28T05:31:18.084Z,10.52
2022-09-28T05:34:11.338Z,11.95
2022-09-28T05:36:42.801Z,12.38
2022-09-28T05:39:11.931Z,12.65
2022-09-28T05:41:42.092Z,10.93
2022-09-28T05:44:11.560Z,10.00
2022-09-28T05:46:40.578Z,11.27
2022-09-28T05:49:14.213Z,10.73
2022-09-28T05:51:43.551Z,9.93
2022-09-28T05:54:12.645Z,9.45
2022-09-28T05:56:45.701Z,12.05
2022-09-28T05:59:15.714Z,10.90
2022-09-28T06:01:44.847Z,11.82
2022-09-28T06:04:16.597Z,12.98
2022-09-28T06:06:47.131Z,12.77
2022-09-28T06:09:16.447Z,9.80
2022-09-28T06:12:04.833Z,10.00
2022-09-28T06:14:47.235Z,9.80
2022-09-28T06:17:17.038Z,10.95
2022-09-28T06:19:53.398Z,10.23
2022-09-28T06:22:35.083Z,10.90
2022-09-28T06:25:10.946Z,7.63
2022-09-28T06:27:42.754Z,5.07
2022-09-28T06:30:13.249Z,6.00
2022-09-28T06:32:43.203Z,6.10
2022-09-28T06:35:15.542Z,6.20
2022-09-28T06:37:46.810Z,4.68
2022-09-28T06:40:16.379Z,6.45
2022-09-28T06:42:46.047Z,6.53
2022-09-28T06:45:53.803Z,8.13
2022-09-28T06:48:41.860Z,7.82
2022-09-28T06:51:16.225Z,9.48
2022-09-28T06:53:56.940Z,32.53
2022-09-28T06:56:52.476Z,33.08
2022-09-28T06:59:22.354Z,22.15
2022-09-28T07:01:51.816Z,24.25
2022-09-28T07:04:27.217Z,22.98
2022-09-28T07:07:16.155Z,21.13
2022-09-28T07:10:10.498Z,27.50
2022-09-28T07:13:15.267Z,9.57
2022-09-28T07:15:56.942Z,7.50
2022-09-28T07:18:26.912Z,6.05
2022-09-28T07:20:58.181Z,7.78
2022-09-28T07:23:30.634Z,7.28
2022-09-28T07:26:35.452Z,7.15
2022-09-28T07:29:11.841Z,6.18
2022-09-28T07:31:54.193Z,24.35
2022-09-28T07:34:43.662Z,7.97
2022-09-28T07:37:37.431Z,7.97
2022-09-28T07:40:46.241Z,7.82
2022-09-28T07:43:20.656Z,6.88
2022-09-28T07:45:54.080Z,7.45
2022-09-28T07:48:24.288Z,6.28
2022-09-28T07:51:12.663Z,7.70
2022-09-28T07:53:44.715Z,6.38
2022-09-28T07:56:34.919Z,10.02
2022-09-28T07:59:26.882Z,6.82
2022-09-28T08:02:15.186Z,12.65
2022-09-28T08:04:45.025Z,10.07
2022-09-28T08:07:14.296Z,9.55
2022-09-28T08:09:43.694Z,9.20
2022-09-28T08:12:34.260Z,7.05
2022-09-28T08:15:37.293Z,6.30
2022-09-28T08:18:24.524Z,4.72
2022-09-28T08:21:12.040Z,6.05
2022-09-28T08:23:41.513Z,6.88
2022-09-28T08:26:14.712Z,6.38
2022-09-28T08:31:36.248Z,6.63
2022-09-28T08:34:38.364Z,6.95
2022-09-28T08:37:16.794Z,6.07
2022-09-28T08:40:05.282Z,6.38
2022-09-28T08:42:52.259Z,5.30
2022-09-28T08:45:49.734Z,5.85
2022-09-28T08:49:13.547Z,7.78
2022-09-28T08:52:09.052Z,6.30
2022-09-28T08:55:03.844Z,6.88
2022-09-28T08:57:46.182Z,7.05
2022-09-28T09:00:22.277Z,8.48
2022-09-28T09:02:53.321Z,8.05
2022-09-28T09:05:42.010Z,8.77
2022-09-28T09:08:25.967Z,4.55
2022-09-28T09:11:04.253Z,3.97
2022-09-28T09:14:09.172Z,5.78
2022-09-28T09:16:49.423Z,5.03
2022-09-28T09:20:00.359Z,5.05
2022-09-28T09:23:00.783Z,4.40
2022-09-28T09:25:38.513Z,3.83
2022-09-28T09:28:43.861Z,4.22
2022-09-28T09:31:27.662Z,4.63
2022-09-28T09:34:23.191Z,4.72
2022-09-28T09:37:06.672Z,3.55
2022-09-28T09:40:26.381Z,4.82
2022-09-28T09:43:22.624Z,6.10
2022-09-28T09:46:25.136Z,4.25
2022-09-28T09:49:08.022Z,3.83
2022-09-28T09:54:19.918Z,5.88
2022-09-28T09:56:54.854Z,9.52
2022-09-28T09:59:46.283Z,4.72
2022-09-28T10:02:28.066Z,4.47
2022-09-28T10:05:20.369Z,5.35
2022-09-28T10:07:55.993Z,5.38
2022-09-28T10:10:32.481Z,5.85
2022-09-28T10:13:13.612Z,7.97
2022-09-28T10:15:45.908Z,6.95
2022-09-28T10:18:22.298Z,6.32
2022-09-28T10:21:15.149Z,7.45
2022-09-28T10:23:58.935Z,6.38
2022-09-28T10:26:36.797Z,5.03
2022-09-28T10:29:14.810Z,5.13
2022-09-28T10:31:47.358Z,4.80
2022-09-28T10:34:32.454Z,5.18
2022-09-28T10:37:13.041Z,4.90
2022-09-28T10:40:30.294Z,5.10
2022-09-28T10:43:09.266Z,4.90
2022-09-28T10:45:39.967Z,3.72
2022-09-28T10:48:17.862Z,5.30
2022-09-28T10:51:01.255Z,4.18
2022-09-28T10:53:31.427Z,4.05
2022-09-28T10:56:22.701Z,3.85
2022-09-28T10:59:03.156Z,3.55
2022-09-28T11:01:45.543Z,2.75
2022-09-28T11:04:23.499Z,3.97
2022-09-28T11:09:32.796Z,4.30
2022-09-28T11:12:15.553Z,4.03
2022-09-28T11:14:52.868Z,3.15
2022-09-28T11:17:29.707Z,3.85
2022-09-28T11:20:00.930Z,2.95
2022-09-28T11:22:41.828Z,4.72
2022-09-28T11:25:24.747Z,2.30
2022-09-28T11:28:04.733Z,3.20
2022-09-28T11:30:41.826Z,2.08
2022-09-28T11:33:43.368Z,1.60
2022-09-28T11:37:07.608Z,1.83
2022-09-28T11:39:50.014Z,1.55
2022-09-28T11:42:32.665Z,1.50
2022-09-28T11:45:12.932Z,1.30
2022-09-28T11:47:54.114Z,1.88
2022-09-28T11:50:29.513Z,1.60
2022-09-28T11:53:18.027Z,0.93
2022-09-28T11:55:53.194Z,1.77
2022-09-28T11:58:30.929Z,2.88
2022-09-28T12:01:06.949Z,1.50
2022-09-28T12:04:01.344Z,2.22
2022-09-28T12:06:38.828Z,1.25
2022-09-28T12:09:17.081Z,1.42
2022-09-28T12:12:01.272Z,1.20
2022-09-28T12:14:46.843Z,1.75
2022-09-28T12:17:23.411Z,1.35
2022-09-28T12:19:59.547Z,3.35
2022-09-28T12:22:36.073Z,2.17
2022-09-28T12:25:12.157Z,1.80
2022-09-28T12:27:46.278Z,4.50
2022-09-28T12:30:20.189Z,1.90
2022-09-28T12:32:54.504Z,2.15
2022-09-28T12:35:37.271Z,1.50
2022-09-28T12:38:32.073Z,1.50
2022-09-28T12:41:17.080Z,3.50
2022-09-28T12:44:00.611Z,1.13
2022-09-28T12:46:49.015Z,1.67
2022-09-28T12:55:21.036Z,1.60
2022-09-28T12:58:00.827Z,2.30
2022-09-28T13:00:40.082Z,2.40
2022-09-28T13:03:36.987Z,1.60
2022-09-28T13:06:37.592Z,2.53
2022-09-28T13:09:23.794Z,1.80
2022-09-28T13:12:13.224Z,1.40
2022-09-28T13:15:06.831Z,2.47
2022-09-28T13:17:53.427Z,2.47
2022-09-28T13:20:44.613Z,3.90
2022-09-28T13:23:20.632Z,2.45
2022-09-28T13:25:57.281Z,2.45
2022-09-28T13:28:28.554Z,3.00
2022-09-28T13:33:40.641Z,3.55
2022-09-28T13:36:38.980Z,2.58
2022-09-28T13:39:48.761Z,2.47
2022-09-28T13:43:00.386Z,5.00
2022-09-28T13:45:41.920Z,1.85
2022-09-28T13:48:20.876Z,6.15
2022-09-28T13:51:17.400Z,3.70
2022-09-28T13:54:04.351Z,1.42
2022-09-28T13:56:43.680Z,1.20
2022-09-28T13:59:23.305Z,1.00
2022-09-28T14:01:58.148Z,1.00
2022-09-28T14:04:55.642Z,1.38
2022-09-28T14:10:21.130Z,1.30
2022-09-28T14:12:51.561Z,1.70
2022-09-28T14:15:44.095Z,1.50
2022-09-28T14:18:25.480Z,5.63
2022-09-28T14:21:37.345Z,3.03
2022-09-28T14:24:17.406Z,2.35
2022-09-28T14:27:29.095Z,3.55
2022-09-28T14:30:17.828Z,3.83
2022-09-28T14:32:56.280Z,2.80
2022-09-28T14:35:35.029Z,3.05
2022-09-28T14:38:32.184Z,3.05
2022-09-28T14:41:10.664Z,18.85
2022-09-28T14:44:03.971Z,12.18
2022-09-28T14:46:44.396Z,7.70
2022-09-28T14:50:00.708Z,10.57
2022-09-28T14:52:47.754Z,6.22
2022-09-28T14:55:20.401Z,8.48
2022-09-28T14:57:56.886Z,4.18
2022-09-28T15:00:29.494Z,11.57
2022-09-28T15:03:02.326Z,10.48
2022-09-28T15:05:43.909Z,8.48
2022-09-28T15:08:13.933Z,6.78
2022-09-28T15:10:48.134Z,2.03
2022-09-28T15:13:23.577Z,6.40
2022-09-28T15:18:49.081Z,2.88
2022-09-28T15:21:20.680Z,2.20
2022-09-28T15:23:49.926Z,4.60
2022-09-28T15:26:27.619Z,4.78
2022-09-28T15:28:57.044Z,13.02
2022-09-28T15:31:28.497Z,12.35
2022-09-28T15:34:14.937Z,8.77
2022-09-28T15:36:47.242Z,7.03
2022-09-28T15:39:19.762Z,8.80
2022-09-28T15:41:51.618Z,5.47
2022-09-28T15:44:33.081Z,2.30
2022-09-28T15:47:11.020Z,9.07
2022-09-28T15:49:45.052Z,10.23
2022-09-28T15:52:29.150Z,8.57
2022-09-28T15:55:01.092Z,6.75
2022-09-28T15:57:41.279Z,3.95
2022-09-28T16:00:27.799Z,4.30
2022-09-28T16:03:02.178Z,4.63
2022-09-28T16:05:43.017Z,8.05
2022-09-28T16:08:21.501Z,5.05
2022-09-28T16:11:05.251Z,10.02
2022-09-28T16:13:35.181Z,6.80
2022-09-28T16:16:04.409Z,7.03
2022-09-28T16:18:39.406Z,7.93
2022-09-28T16:21:31.620Z,4.32
2022-09-28T16:24:02.476Z,5.70
2022-09-28T16:26:35.551Z,15.07
2022-09-28T16:29:10.897Z,5.55
2022-09-28T16:31:43.273Z,4.55
2022-09-28T16:34:21.175Z,6.18
2022-09-28T16:36:51.760Z,10.02
2022-09-28T16:39:22.187Z,8.48
2022-09-28T16:41:55.430Z,22.00
2022-09-28T16:44:28.516Z,26.20
2022-09-28T16:47:00.985Z,21.42
2022-09-28T16:49:32.290Z,19.33
2022-09-28T16:52:02.500Z,23.92
2022-09-28T16:54:51.622Z,22.15
2022-09-28T16:57:20.924Z,21.73
2022-09-28T16:59:49.927Z,22.17
2022-09-28T17:02:46.178Z,17.45
2022-09-28T17:05:14.938Z,22.83
2022-09-28T17:07:45.923Z,34.20
2022-09-28T17:10:28.266Z,26.10
2022-09-28T17:12:57.441Z,25.25
2022-09-28T17:15:26.916Z,30.83
2022-09-28T17:17:56.507Z,37.15
2022-09-28T17:20:28.677Z,34.83
2022-09-28T17:22:58.180Z,44.17
2022-09-28T17:25:29.090Z,35.75
2022-09-28T17:27:59.616Z,40.33
2022-09-28T17:30:29.023Z,43.15
2022-09-28T17:33:01.626Z,41.30
2022-09-28T17:35:30.994Z,37.83
2022-09-28T17:38:00.587Z,43.30
2022-09-28T17:40:31.847Z,37.70
2022-09-28T17:43:01.370Z,36.88
2022-09-28T17:45:32.103Z,39.90
2022-09-28T17:48:01.890Z,38.60
2022-09-28T17:50:34.461Z,35.53
2022-09-28T17:53:06.267Z,37.22
2022-09-28T17:55:40.880Z,37.25
2022-09-28T17:58:17.729Z,35.78
2022-09-28T18:00:49.142Z,35.42
2022-09-28T18:03:20.433Z,36.65
2022-09-28T18:05:59.363Z,31.60
2022-09-28T18:08:28.398Z,33.92
2022-09-28T18:10:59.227Z,27.73
2022-09-28T18:13:28.576Z,28.70
2022-09-28T18:15:58.480Z,26.25
2022-09-28T18:18:27.935Z,32.90
2022-09-28T18:20:57.155Z,51.40
2022-09-28T18:23:26.238Z,53.35
2022-09-28T18:25:55.808Z,35.00
2022-09-28T18:28:29.152Z,35.30
2022-09-28T18:30:58.566Z,39.90
2022-09-28T18:33:27.939Z,33.42
2022-09-28T18:35:57.614Z,29.65
2022-09-28T18:38:26.890Z,32.08
2022-09-28T18:40:56.605Z,28.08
2022-09-28T18:43:26.164Z,21.88
2022-09-28T18:45:57.009Z,20.50
2022-09-28T18:48:28.052Z,21.13
2022-09-28T18:50:57.695Z,21.45
2022-09-28T18:53:26.971Z,25.17
2022-09-28T18:55:57.756Z,23.10
2022-09-28T18:58:27.880Z,19.25
2022-09-28T19:01:18.730Z,30.45
2022-09-28T19:03:47.829Z,24.45
2022-09-28T19:06:18.166Z,20.58
2022-09-28T19:08:52.259Z,22.67
2022-09-28T19:11:25.328Z,22.90
2022-09-28T19:13:55.951Z,24.23
2022-09-28T19:16:29.199Z,26.52
2022-09-28T19:18:58.974Z,21.88
2022-09-28T19:21:28.206Z,24.45
2022-09-28T19:23:57.685Z,22.70
2022-09-28T19:26:28.228Z,24.27
2022-09-28T19:29:00.375Z,19.50
2022-09-28T19:31:31.366Z,25.40
2022-09-28T19:34:00.734Z,21.48
2022-09-28T19:36:30.490Z,18.80
2022-09-28T19:39:02.906Z,28.55
2022-09-28T19:41:44.532Z,25.77
2022-09-28T19:44:24.745Z,19.67
2022-09-28T19:46:58.162Z,21.92
2022-09-28T19:49:33.104Z,22.00
2022-09-28T19:52:18.462Z,19.02
2022-09-28T19:54:52.126Z,24.92
2022-09-28T19:57:21.409Z,22.50
2022-09-28T19:59:52.698Z,23.98
2022-09-28T20:02:24.129Z,30.40
2022-09-28T20:04:53.246Z,21.92
2022-09-28T20:07:22.926Z,24.27
2022-09-28T20:09:52.090Z,27.58
2022-09-28T20:12:21.209Z,31.27
2022-09-28T20:14:50.153Z,32.67
2022-09-28T20:17:22.051Z,26.25
2022-09-28T20:19:52.740Z,27.08
2022-09-28T20:22:22.316Z,33.53
2022-09-28T20:24:51.319Z,34.28
2022-09-28T20:27:23.187Z,29.95
2022-09-28T20:29:55.436Z,36.17
2022-09-28T20:32:24.840Z,25.42
2022-09-28T20:34:55.298Z,30.65
2022-09-28T20:37:25.610Z,26.83
2022-09-28T20:39:55.470Z,26.90
2022-09-28T20:42:24.590Z,28.90
2022-09-28T20:44:54.278Z,35.60
2022-09-28T20:47:23.319Z,32.80
2022-09-28T20:49:52.284Z,28.25
2022-09-28T20:52:23.198Z,29.60
2022-09-28T20:54:52.352Z,25.75
2022-09-28T20:57:21.416Z,31.70
2022-09-28T20:59:54.591Z,30.92
2022-09-28T21:02:24.136Z,29.13
2022-09-28T21:04:54.166Z,33.55
2022-09-28T21:07:24.698Z,42.60
2022-09-28T21:09:54.427Z,34.75
2022-09-28T21:12:26.040Z,39.08
2022-09-28T21:14:55.338Z,36.25
2022-09-28T21:17:24.314Z,39.13
2022-09-28T21:19:53.198Z,32.53
2022-09-28T21:22:23.911Z,32.17
2022-09-28T21:24:53.143Z,36.08
2022-09-28T21:27:22.197Z,36.38
2022-09-28T21:29:51.363Z,26.95
2022-09-28T21:32:20.538Z,32.13
2022-09-28T21:34:50.524Z,28.40
2022-09-28T21:37:19.814Z,24.75
2022-09-28T21:39:50.147Z,30.38
2022-09-28T21:42:19.229Z,30.70
2022-09-28T21:44:48.324Z,32.90
2022-09-28T21:47:17.360Z,31.13
2022-09-28T21:49:46.233Z,25.63
2022-09-28T21:52:15.350Z,25.98
2022-09-28T21:54:44.329Z,27.02
2022-09-28T21:57:14.711Z,27.33
2022-09-28T21:59:43.829Z,29.63
2022-09-28T22:02:13.651Z,25.60
2022-09-28T22:04:42.653Z,27.73
2022-09-28T22:07:12.223Z,31.33
2022-09-28T22:09:41.258Z,28.92
2022-09-28T22:12:10.751Z,31.25
2022-09-28T22:14:41.472Z,27.38
2022-09-28T22:17:10.688Z,28.40
2022-09-28T22:19:40.461Z,31.10
2022-09-28T22:22:09.942Z,24.58
2022-09-28T22:24:39.023Z,30.77
2022-09-28T22:27:08.256Z,28.65
2022-09-28T22:29:37.505Z,29.80
2022-09-28T22:32:08.080Z,23.45
2022-09-28T22:34:37.535Z,29.77
2022-09-28T22:37:06.814Z,23.88
2022-09-28T22:39:37.864Z,27.83
2022-09-28T22:42:07.458Z,27.08
2022-09-28T22:44:37.822Z,26.05
2022-09-28T22:47:08.612Z,25.30
2022-09-28T22:49:37.845Z,21.63
2022-09-28T22:52:06.817Z,20.63
2022-09-28T22:54:35.903Z,31.20
2022-09-28T22:57:05.294Z,24.98
2022-09-28T22:59:34.415Z,24.95
2022-09-28T23:02:03.715Z,21.20
2022-09-28T23:04:34.525Z,21.48
2022-09-28T23:07:03.754Z,21.25
2022-09-28T23:09:33.264Z,21.88
2022-09-28T23:12:02.630Z,25.25
2022-09-28T23:14:31.585Z,22.90
2022-09-28T23:17:01.131Z,21.83
2022-09-28T23:19:30.241Z,20.90
2022-09-28T23:22:00.678Z,17.27
2022-09-28T23:24:30.000Z,20.60
2022-09-28T23:26:59.154Z,20.25
2022-09-28T23:29:28.305Z,22.13
2022-09-28T23:31:57.496Z,19.60
2022-09-28T23:34:26.488Z,17.25
2022-09-28T23:36:56.856Z,20.10
2022-09-28T23:39:27.448Z,21.67
2022-09-28T23:41:57.866Z,16.95
2022-09-28T23:44:28.153Z,16.50
2022-09-28T23:46:57.709Z,16.00
2022-09-28T23:49:26.787Z,14.38
2022-09-28T23:51:56.143Z,17.10
2022-09-28T23:54:26.496Z,20.10
2022-09-28T23:56:55.662Z,16.73
2022-09-28T23:59:24.948Z,18.48
